sensor_id;sensor_type;location;lat;lon;timestamp;pressure;altitude;pressure_sealevel;temperature;humidity
35489;BME280;21602;55.670;37.578;2024-03-25T00:02:13;97411.53;;;3.96;100.00
35489;BME280;21602;55.670;37.578;2024-03-25T00:04:39;97433.13;;;3.93;100.00
35489;BME280;21602;55.670;37.578;2024-03-25T00:07:05;97440.63;;;3.84;98.82
35489;BME280;21602;55.670;37.578;2024-03-25T00:09:30;97433.53;;;3.85;99.67
35489;BME280;21602;55.670;37.578;2024-03-25T00:11:56;97441.56;;;3.78;97.89
35489;BME280;21602;55.670;37.578;2024-03-25T00:14:22;97448.78;;;3.83;98.18
35489;BME280;21602;55.670;37.578;2024-03-25T00:16:48;97453.19;;;3.77;97.99
35489;BME280;21602;55.670;37.578;2024-03-25T00:19:14;97450.44;;;3.72;97.32
35489;BME280;21602;55.670;37.578;2024-03-25T00:21:40;97461.00;;;3.72;97.62
35489;BME280;21602;55.670;37.578;2024-03-25T00:24:05;97465.94;;;3.69;97.79
35489;BME280;21602;55.670;37.578;2024-03-25T00:26:31;97481.31;;;3.72;97.52
35489;BME280;21602;55.670;37.578;2024-03-25T00:28:57;97458.13;;;3.74;96.12
35489;BME280;21602;55.670;37.578;2024-03-25T00:31:23;97462.59;;;3.73;96.11
35489;BME280;21602;55.670;37.578;2024-03-25T00:33:49;97462.50;;;3.68;95.80
35489;BME280;21602;55.670;37.578;2024-03-25T00:36:15;97468.16;;;3.60;95.10
35489;BME280;21602;55.670;37.578;2024-03-25T00:38:41;97479.28;;;3.50;95.10
35489;BME280;21602;55.670;37.578;2024-03-25T00:41:07;97466.94;;;3.39;94.47
35489;BME280;21602;55.670;37.578;2024-03-25T00:43:33;97473.81;;;3.40;95.70
35489;BME280;21602;55.670;37.578;2024-03-25T00:45:58;97471.78;;;3.42;95.98
35489;BME280;21602;55.670;37.578;2024-03-25T00:48:24;97475.22;;;3.43;95.66
35489;BME280;21602;55.670;37.578;2024-03-25T00:50:50;97486.22;;;3.40;96.05
35489;BME280;21602;55.670;37.578;2024-03-25T00:53:15;97488.75;;;3.34;95.59
35489;BME280;21602;55.670;37.578;2024-03-25T00:55:41;97508.47;;;3.32;95.89
35489;BME280;21602;55.670;37.578;2024-03-25T00:58:07;97498.84;;;3.26;96.22
35489;BME280;21602;55.670;37.578;2024-03-25T01:00:33;97501.25;;;3.27;96.34
35489;BME280;21602;55.670;37.578;2024-03-25T01:02:58;97515.81;;;3.30;96.12
35489;BME280;21602;55.670;37.578;2024-03-25T01:05:24;97514.88;;;3.36;96.52
35489;BME280;21602;55.670;37.578;2024-03-25T01:07:50;97518.44;;;3.42;96.03
35489;BME280;21602;55.670;37.578;2024-03-25T01:10:16;97525.22;;;3.38;95.87
35489;BME280;21602;55.670;37.578;2024-03-25T01:12:42;97517.75;;;3.34;95.87
35489;BME280;21602;55.670;37.578;2024-03-25T01:15:08;97530.38;;;3.32;95.88
35489;BME280;21602;55.670;37.578;2024-03-25T01:17:36;97526.16;;;3.20;96.10
35489;BME280;21602;55.670;37.578;2024-03-25T01:20:02;97537.94;;;3.17;96.47
35489;BME280;21602;55.670;37.578;2024-03-25T01:22:30;97539.22;;;3.15;97.18
35489;BME280;21602;55.670;37.578;2024-03-25T01:24:57;97546.53;;;3.13;98.09
35489;BME280;21602;55.670;37.578;2024-03-25T01:27:23;97554.56;;;3.18;98.32
35489;BME280;21602;55.670;37.578;2024-03-25T01:29:49;97550.91;;;3.19;98.60
35489;BME280;21602;55.670;37.578;2024-03-25T01:32:14;97539.34;;;3.20;98.71
35489;BME280;21602;55.670;37.578;2024-03-25T01:34:40;97544.84;;;3.18;98.57
35489;BME280;21602;55.670;37.578;2024-03-25T01:37:06;97541.75;;;3.10;98.29
35489;BME280;21602;55.670;37.578;2024-03-25T01:39:31;97531.09;;;3.04;97.91
35489;BME280;21602;55.670;37.578;2024-03-25T01:41:57;97535.78;;;3.02;97.89
35489;BME280;21602;55.670;37.578;2024-03-25T01:44:23;97539.91;;;2.98;97.86
35489;BME280;21602;55.670;37.578;2024-03-25T01:46:49;97548.38;;;3.00;97.33
35489;BME280;21602;55.670;37.578;2024-03-25T01:49:15;97554.13;;;2.97;97.09
35489;BME280;21602;55.670;37.578;2024-03-25T01:51:41;97568.78;;;3.05;97.28
35489;BME280;21602;55.670;37.578;2024-03-25T01:54:08;97573.38;;;3.10;97.25
35489;BME280;21602;55.670;37.578;2024-03-25T01:56:34;97576.91;;;3.03;96.77
35489;BME280;21602;55.670;37.578;2024-03-25T01:59:02;97593.56;;;3.04;97.24
35489;BME280;21602;55.670;37.578;2024-03-25T02:01:29;97586.19;;;2.94;97.69
35489;BME280;21602;55.670;37.578;2024-03-25T02:03:55;97583.91;;;2.86;98.12
35489;BME280;21602;55.670;37.578;2024-03-25T02:06:22;97595.47;;;2.85;98.68
35489;BME280;21602;55.670;37.578;2024-03-25T02:08:50;97600.16;;;2.83;99.32
35489;BME280;21602;55.670;37.578;2024-03-25T02:11:18;97599.94;;;2.85;99.45
35489;BME280;21602;55.670;37.578;2024-03-25T02:13:43;97594.31;;;2.81;99.37
35489;BME280;21602;55.670;37.578;2024-03-25T02:16:09;97603.84;;;2.82;99.18
35489;BME280;21602;55.670;37.578;2024-03-25T02:18:55;97608.19;;;2.88;99.00
35489;BME280;21602;55.670;37.578;2024-03-25T02:21:21;97601.31;;;2.87;98.27
35489;BME280;21602;55.670;37.578;2024-03-25T02:23:46;97602.91;;;2.88;98.15
35489;BME280;21602;55.670;37.578;2024-03-25T02:26:15;97612.34;;;2.96;98.02
35489;BME280;21602;55.670;37.578;2024-03-25T02:28:41;97610.06;;;2.99;97.84
35489;BME280;21602;55.670;37.578;2024-03-25T02:31:06;97618.28;;;3.03;97.54
35489;BME280;21602;55.670;37.578;2024-03-25T02:33:32;97623.34;;;3.04;97.31
35489;BME280;21602;55.670;37.578;2024-03-25T02:35:58;97628.72;;;2.98;95.90
35489;BME280;21602;55.670;37.578;2024-03-25T02:38:23;97628.72;;;2.98;95.66
35489;BME280;21602;55.670;37.578;2024-03-25T02:40:49;97630.19;;;2.94;95.92
35489;BME280;21602;55.670;37.578;2024-03-25T02:43:17;97630.66;;;2.91;95.99
35489;BME280;21602;55.670;37.578;2024-03-25T02:45:45;97640.19;;;2.92;95.65
35489;BME280;21602;55.670;37.578;2024-03-25T02:48:10;97642.56;;;2.93;95.46
35489;BME280;21602;55.670;37.578;2024-03-25T02:50:36;97664.69;;;2.92;95.78
35489;BME280;21602;55.670;37.578;2024-03-25T02:53:02;97677.44;;;2.95;95.66
35489;BME280;21602;55.670;37.578;2024-03-25T02:55:28;97676.53;;;3.01;95.55
35489;BME280;21602;55.670;37.578;2024-03-25T02:57:53;97673.66;;;3.03;94.91
35489;BME280;21602;55.670;37.578;2024-03-25T03:00:19;97679.16;;;3.01;95.64
35489;BME280;21602;55.670;37.578;2024-03-25T03:02:45;97682.13;;;2.93;94.49
35489;BME280;21602;55.670;37.578;2024-03-25T03:05:10;97680.63;;;2.97;95.10
35489;BME280;21602;55.670;37.578;2024-03-25T03:07:36;97677.44;;;2.95;94.83
35489;BME280;21602;55.670;37.578;2024-03-25T03:10:02;97672.25;;;2.89;95.19
35489;BME280;21602;55.670;37.578;2024-03-25T03:12:27;97688.41;;;2.92;95.26
35489;BME280;21602;55.670;37.578;2024-03-25T03:14:53;97698.59;;;2.89;95.88
35489;BME280;21602;55.670;37.578;2024-03-25T03:17:19;97688.59;;;2.79;94.58
35489;BME280;21602;55.670;37.578;2024-03-25T03:19:45;97696.97;;;2.76;94.54
35489;BME280;21602;55.670;37.578;2024-03-25T03:22:10;97695.16;;;2.88;95.28
35489;BME280;21602;55.670;37.578;2024-03-25T03:24:36;97700.69;;;2.98;94.91
35489;BME280;21602;55.670;37.578;2024-03-25T03:27:02;97705.28;;;3.03;94.16
35489;BME280;21602;55.670;37.578;2024-03-25T03:29:27;97707.03;;;3.09;94.44
35489;BME280;21602;55.670;37.578;2024-03-25T03:31:53;97700.75;;;3.10;92.87
35489;BME280;21602;55.670;37.578;2024-03-25T03:34:19;97716.44;;;3.05;91.55
35489;BME280;21602;55.670;37.578;2024-03-25T03:36:45;97717.66;;;3.02;92.72
35489;BME280;21602;55.670;37.578;2024-03-25T03:39:10;97723.66;;;3.10;93.36
35489;BME280;21602;55.670;37.578;2024-03-25T03:41:36;97727.34;;;3.20;92.08
35489;BME280;21602;55.670;37.578;2024-03-25T03:44:02;97737.34;;;3.18;92.56
35489;BME280;21602;55.670;37.578;2024-03-25T03:46:28;97731.34;;;3.23;92.76
35489;BME280;21602;55.670;37.578;2024-03-25T03:48:53;97735.06;;;3.33;92.78
35489;BME280;21602;55.670;37.578;2024-03-25T03:51:19;97733.13;;;3.29;90.89
35489;BME280;21602;55.670;37.578;2024-03-25T03:53:47;97728.97;;;3.21;90.86
35489;BME280;21602;55.670;37.578;2024-03-25T03:56:13;97743.06;;;3.27;91.93
35489;BME280;21602;55.670;37.578;2024-03-25T03:58:38;97752.75;;;3.33;91.57
35489;BME280;21602;55.670;37.578;2024-03-25T04:01:04;97752.63;;;3.40;91.43
35489;BME280;21602;55.670;37.578;2024-03-25T04:03:30;97748.50;;;3.44;90.75
35489;BME280;21602;55.670;37.578;2024-03-25T04:05:56;97763.06;;;3.46;90.74
35489;BME280;21602;55.670;37.578;2024-03-25T04:08:21;97769.38;;;3.45;90.25
35489;BME280;21602;55.670;37.578;2024-03-25T04:10:47;97765.25;;;3.49;90.13
35489;BME280;21602;55.670;37.578;2024-03-25T04:13:13;97780.66;;;3.52;89.99
35489;BME280;21602;55.670;37.578;2024-03-25T04:15:40;97774.91;;;3.55;89.59
35489;BME280;21602;55.670;37.578;2024-03-25T04:18:08;97778.13;;;3.57;89.12
35489;BME280;21602;55.670;37.578;2024-03-25T04:20:44;97776.53;;;3.56;88.65
35489;BME280;21602;55.670;37.578;2024-03-25T04:23:15;97788.56;;;3.52;88.77
35489;BME280;21602;55.670;37.578;2024-03-25T04:25:41;97791.53;;;3.56;89.01
35489;BME280;21602;55.670;37.578;2024-03-25T04:28:07;97783.28;;;3.52;88.21
35489;BME280;21602;55.670;37.578;2024-03-25T04:30:33;97793.91;;;3.46;87.45
35489;BME280;21602;55.670;37.578;2024-03-25T04:33:09;97798.28;;;3.40;87.75
35489;BME280;21602;55.670;37.578;2024-03-25T04:35:37;97803.28;;;3.30;87.87
35489;BME280;21602;55.670;37.578;2024-03-25T04:38:04;97806.84;;;3.24;88.33
35489;BME280;21602;55.670;37.578;2024-03-25T04:40:32;97809.91;;;3.21;88.40
35489;BME280;21602;55.670;37.578;2024-03-25T04:42:58;97825.16;;;3.19;88.43
35489;BME280;21602;55.670;37.578;2024-03-25T04:45:24;97829.47;;;3.13;88.77
35489;BME280;21602;55.670;37.578;2024-03-25T04:47:49;97830.50;;;3.12;88.28
35489;BME280;21602;55.670;37.578;2024-03-25T04:50:18;97843.03;;;3.17;88.31
35489;BME280;21602;55.670;37.578;2024-03-25T04:52:53;97836.72;;;3.18;88.40
35489;BME280;21602;55.670;37.578;2024-03-25T04:55:23;97841.81;;;3.31;88.55
35489;BME280;21602;55.670;37.578;2024-03-25T04:57:58;97850.91;;;3.35;87.98
35489;BME280;21602;55.670;37.578;2024-03-25T05:00:23;97846.53;;;3.29;87.00
35489;BME280;21602;55.670;37.578;2024-03-25T05:02:49;97853.84;;;3.27;87.29
35489;BME280;21602;55.670;37.578;2024-03-25T05:05:18;97858.69;;;3.30;88.05
35489;BME280;21602;55.670;37.578;2024-03-25T05:07:44;97860.06;;;3.32;87.78
35489;BME280;21602;55.670;37.578;2024-03-25T05:10:10;97852.53;;;3.18;85.81
35489;BME280;21602;55.670;37.578;2024-03-25T05:12:38;97870.41;;;3.16;86.54
35489;BME280;21602;55.670;37.578;2024-03-25T05:15:04;97885.31;;;3.10;87.31
35489;BME280;21602;55.670;37.578;2024-03-25T05:17:37;97878.34;;;3.16;87.78
35489;BME280;21602;55.670;37.578;2024-03-25T05:20:02;97887.56;;;3.25;87.52
35489;BME280;21602;55.670;37.578;2024-03-25T05:22:33;97879.78;;;3.30;86.61
35489;BME280;21602;55.670;37.578;2024-03-25T05:24:59;97886.22;;;3.34;85.71
35489;BME280;21602;55.670;37.578;2024-03-25T05:27:28;97880.03;;;3.40;86.40
35489;BME280;21602;55.670;37.578;2024-03-25T05:29:54;97889.69;;;3.46;86.39
35489;BME280;21602;55.670;37.578;2024-03-25T05:32:20;97885.16;;;3.53;86.44
35489;BME280;21602;55.670;37.578;2024-03-25T05:34:47;97900.22;;;3.65;86.66
35489;BME280;21602;55.670;37.578;2024-03-25T05:37:19;97903.59;;;3.72;85.65
35489;BME280;21602;55.670;37.578;2024-03-25T05:39:55;97901.50;;;3.74;85.48
35489;BME280;21602;55.670;37.578;2024-03-25T05:42:23;97903.09;;;3.63;85.58
35489;BME280;21602;55.670;37.578;2024-03-25T05:44:48;97911.91;;;3.57;85.38
35489;BME280;21602;55.670;37.578;2024-03-25T05:47:14;97911.16;;;3.50;85.67
35489;BME280;21602;55.670;37.578;2024-03-25T05:49:48;97916.38;;;3.56;85.95
35489;BME280;21602;55.670;37.578;2024-03-25T05:52:14;97913.78;;;3.68;86.32
35489;BME280;21602;55.670;37.578;2024-03-25T05:54:45;97915.19;;;3.82;86.19
35489;BME280;21602;55.670;37.578;2024-03-25T05:59:59;97929.59;;;3.98;84.38
35489;BME280;21602;55.670;37.578;2024-03-25T06:02:37;97917.09;;;4.05;84.63
35489;BME280;21602;55.670;37.578;2024-03-25T06:05:04;97925.41;;;4.21;84.42
35489;BME280;21602;55.670;37.578;2024-03-25T06:07:34;97935.16;;;4.32;84.13
35489;BME280;21602;55.670;37.578;2024-03-25T06:09:59;97937.97;;;4.37;82.79
35489;BME280;21602;55.670;37.578;2024-03-25T06:12:25;97944.03;;;4.49;83.08
35489;BME280;21602;55.670;37.578;2024-03-25T06:14:50;97950.84;;;4.57;82.61
35489;BME280;21602;55.670;37.578;2024-03-25T06:17:19;97954.72;;;4.54;81.25
35489;BME280;21602;55.670;37.578;2024-03-25T06:19:47;97963.25;;;4.56;81.64
35489;BME280;21602;55.670;37.578;2024-03-25T06:22:13;97970.22;;;4.51;81.24
35489;BME280;21602;55.670;37.578;2024-03-25T06:24:41;97976.78;;;4.48;81.39
35489;BME280;21602;55.670;37.578;2024-03-25T06:27:10;97974.03;;;4.55;80.94
35489;BME280;21602;55.670;37.578;2024-03-25T06:29:36;97983.84;;;4.66;80.91
35489;BME280;21602;55.670;37.578;2024-03-25T06:32:02;97988.19;;;4.72;80.37
35489;BME280;21602;55.670;37.578;2024-03-25T06:34:46;97991.28;;;4.69;78.90
35489;BME280;21602;55.670;37.578;2024-03-25T06:37:11;97991.19;;;4.76;79.76
35489;BME280;21602;55.670;37.578;2024-03-25T06:39:37;97990.50;;;4.80;79.76
35489;BME280;21602;55.670;37.578;2024-03-25T06:42:03;97992.44;;;4.97;79.47
35489;BME280;21602;55.670;37.578;2024-03-25T06:44:29;98002.13;;;5.14;79.71
35489;BME280;21602;55.670;37.578;2024-03-25T06:46:54;98005.66;;;5.32;79.40
35489;BME280;21602;55.670;37.578;2024-03-25T06:49:21;98006.44;;;5.44;78.77
35489;BME280;21602;55.670;37.578;2024-03-25T06:51:47;98005.50;;;5.50;77.79
35489;BME280;21602;55.670;37.578;2024-03-25T06:54:13;98010.78;;;5.50;77.09
35489;BME280;21602;55.670;37.578;2024-03-25T06:56:38;98018.97;;;5.49;76.51
35489;BME280;21602;55.670;37.578;2024-03-25T06:59:05;98023.56;;;5.53;76.01
35489;BME280;21602;55.670;37.578;2024-03-25T07:01:32;98019.22;;;5.47;76.11
35489;BME280;21602;55.670;37.578;2024-03-25T07:03:57;98030.84;;;5.34;74.50
35489;BME280;21602;55.670;37.578;2024-03-25T07:06:23;98035.47;;;5.27;74.76
35489;BME280;21602;55.670;37.578;2024-03-25T07:08:50;98037.75;;;5.24;75.79
35489;BME280;21602;55.670;37.578;2024-03-25T07:11:16;98035.69;;;5.26;75.48
35489;BME280;21602;55.670;37.578;2024-03-25T07:13:43;98050.06;;;5.30;75.54
35489;BME280;21602;55.670;37.578;2024-03-25T07:16:09;98049.03;;;5.43;75.77
35489;BME280;21602;55.670;37.578;2024-03-25T07:18:36;98047.06;;;5.50;76.14
35489;BME280;21602;55.670;37.578;2024-03-25T07:21:25;98057.06;;;5.59;75.72
35489;BME280;21602;55.670;37.578;2024-03-25T07:23:50;98057.25;;;5.70;74.95
35489;BME280;21602;55.670;37.578;2024-03-25T07:26:16;98055.06;;;5.78;75.34
35489;BME280;21602;55.670;37.578;2024-03-25T07:28:43;98064.03;;;5.89;74.94
35489;BME280;21602;55.670;37.578;2024-03-25T07:31:14;98065.50;;;6.08;74.60
35489;BME280;21602;55.670;37.578;2024-03-25T07:33:42;98072.97;;;6.11;74.01
35489;BME280;21602;55.670;37.578;2024-03-25T07:36:09;98079.22;;;6.05;73.38
35489;BME280;21602;55.670;37.578;2024-03-25T07:38:35;98082.41;;;6.07;73.42
35489;BME280;21602;55.670;37.578;2024-03-25T07:41:04;98083.91;;;6.15;73.22
35489;BME280;21602;55.670;37.578;2024-03-25T07:43:39;98090.59;;;6.18;72.19
35489;BME280;21602;55.670;37.578;2024-03-25T07:46:05;98089.63;;;6.24;72.54
35489;BME280;21602;55.670;37.578;2024-03-25T07:48:30;98093.88;;;6.25;72.53
35489;BME280;21602;55.670;37.578;2024-03-25T07:50:57;98095.59;;;6.31;72.10
35489;BME280;21602;55.670;37.578;2024-03-25T07:53:22;98093.00;;;6.48;71.90
35489;BME280;21602;55.670;37.578;2024-03-25T07:55:48;98096.06;;;6.56;71.10
35489;BME280;21602;55.670;37.578;2024-03-25T07:58:14;98096.81;;;6.68;70.74
35489;BME280;21602;55.670;37.578;2024-03-25T08:00:39;98103.91;;;6.80;70.15
35489;BME280;21602;55.670;37.578;2024-03-25T08:03:05;98100.28;;;6.86;69.88
35489;BME280;21602;55.670;37.578;2024-03-25T08:05:31;98100.28;;;6.86;69.91
35489;BME280;21602;55.670;37.578;2024-03-25T08:07:56;98105.59;;;6.86;69.56
35489;BME280;21602;55.670;37.578;2024-03-25T08:10:22;98111.16;;;6.84;69.25
35489;BME280;21602;55.670;37.578;2024-03-25T08:12:48;98113.22;;;6.82;67.63
35489;BME280;21602;55.670;37.578;2024-03-25T08:15:14;98110.91;;;6.86;68.44
35489;BME280;21602;55.670;37.578;2024-03-25T08:17:39;98107.59;;;6.79;67.94
35489;BME280;21602;55.670;37.578;2024-03-25T08:20:06;98120.47;;;6.70;68.20
35489;BME280;21602;55.670;37.578;2024-03-25T08:22:31;98110.94;;;6.57;67.58
35489;BME280;21602;55.670;37.578;2024-03-25T08:24:57;98120.31;;;6.48;67.59
35489;BME280;21602;55.670;37.578;2024-03-25T08:27:23;98120.66;;;6.52;67.55
35489;BME280;21602;55.670;37.578;2024-03-25T08:29:48;98113.44;;;6.64;68.05
35489;BME280;21602;55.670;37.578;2024-03-25T08:32:16;98115.47;;;6.74;67.84
35489;BME280;21602;55.670;37.578;2024-03-25T08:34:42;98118.41;;;6.89;67.90
35489;BME280;21602;55.670;37.578;2024-03-25T08:37:08;98119.03;;;6.96;67.75
35489;BME280;21602;55.670;37.578;2024-03-25T08:39:33;98115.81;;;6.94;67.67
35489;BME280;21602;55.670;37.578;2024-03-25T08:41:59;98120.31;;;7.10;67.64
35489;BME280;21602;55.670;37.578;2024-03-25T08:44:25;98120.78;;;7.07;66.72
35489;BME280;21602;55.670;37.578;2024-03-25T08:46:50;98120.00;;;7.24;66.35
35489;BME280;21602;55.670;37.578;2024-03-25T08:49:38;98125.00;;;7.37;65.71
35489;BME280;21602;55.670;37.578;2024-03-25T08:52:04;98125.28;;;7.57;65.93
35489;BME280;21602;55.670;37.578;2024-03-25T08:54:29;98133.00;;;7.76;65.42
35489;BME280;21602;55.670;37.578;2024-03-25T08:56:55;98130.22;;;7.87;64.87
35489;BME280;21602;55.670;37.578;2024-03-25T08:59:23;98130.78;;;7.89;64.34
35489;BME280;21602;55.670;37.578;2024-03-25T09:01:49;98135.53;;;7.87;63.85
35489;BME280;21602;55.670;37.578;2024-03-25T09:04:15;98137.66;;;7.85;63.71
35489;BME280;21602;55.670;37.578;2024-03-25T09:06:40;98142.31;;;7.78;63.76
35489;BME280;21602;55.670;37.578;2024-03-25T09:09:06;98145.34;;;7.87;63.42
35489;BME280;21602;55.670;37.578;2024-03-25T09:11:51;98143.16;;;7.79;62.51
35489;BME280;21602;55.670;37.578;2024-03-25T09:14:16;98148.13;;;7.75;63.23
35489;BME280;21602;55.670;37.578;2024-03-25T09:16:42;98154.72;;;7.73;62.71
35489;BME280;21602;55.670;37.578;2024-03-25T09:19:07;98155.38;;;7.63;62.86
35489;BME280;21602;55.670;37.578;2024-03-25T09:21:33;98167.88;;;7.62;62.92
35489;BME280;21602;55.670;37.578;2024-03-25T09:24:00;98171.81;;;7.60;63.02
35489;BME280;21602;55.670;37.578;2024-03-25T09:26:25;98163.75;;;7.55;63.14
35489;BME280;21602;55.670;37.578;2024-03-25T09:28:52;98171.41;;;7.51;62.86
35489;BME280;21602;55.670;37.578;2024-03-25T09:31:22;98170.28;;;7.47;62.97
35489;BME280;21602;55.670;37.578;2024-03-25T09:33:48;98174.41;;;7.38;62.63
35489;BME280;21602;55.670;37.578;2024-03-25T09:36:13;98185.97;;;7.49;62.71
35489;BME280;21602;55.670;37.578;2024-03-25T09:38:40;98188.13;;;7.68;62.74
35489;BME280;21602;55.670;37.578;2024-03-25T09:41:08;98184.81;;;7.95;62.16
35489;BME280;21602;55.670;37.578;2024-03-25T09:43:43;98190.72;;;8.19;61.29
35489;BME280;21602;55.670;37.578;2024-03-25T09:46:11;98183.47;;;8.14;60.80
35489;BME280;21602;55.670;37.578;2024-03-25T09:48:37;98184.94;;;8.05;61.31
35489;BME280;21602;55.670;37.578;2024-03-25T09:51:04;98184.06;;;8.00;61.50
35489;BME280;21602;55.670;37.578;2024-03-25T09:53:30;98181.22;;;8.06;61.65
35489;BME280;21602;55.670;37.578;2024-03-25T09:55:56;98185.00;;;8.10;61.24
35489;BME280;21602;55.670;37.578;2024-03-25T09:58:24;98181.22;;;8.06;60.19
35489;BME280;21602;55.670;37.578;2024-03-25T10:00:50;98178.91;;;8.10;60.40
35489;BME280;21602;55.670;37.578;2024-03-25T10:03:16;98183.16;;;8.11;60.06
35489;BME280;21602;55.670;37.578;2024-03-25T10:05:45;98179.88;;;8.04;60.29
35489;BME280;21602;55.670;37.578;2024-03-25T10:08:11;98190.44;;;7.99;60.36
35489;BME280;21602;55.670;37.578;2024-03-25T10:10:37;98196.56;;;7.99;60.67
35489;BME280;21602;55.670;37.578;2024-03-25T10:13:06;98198.03;;;7.90;60.34
35489;BME280;21602;55.670;37.578;2024-03-25T10:15:32;98205.63;;;7.64;61.02
35489;BME280;21602;55.670;37.578;2024-03-25T10:17:58;98201.91;;;7.49;61.25
35489;BME280;21602;55.670;37.578;2024-03-25T10:20:24;98199.00;;;7.33;61.75
35489;BME280;21602;55.670;37.578;2024-03-25T10:22:51;98199.94;;;7.10;62.47
35489;BME280;21602;55.670;37.578;2024-03-25T10:25:48;98195.03;;;6.74;63.72
35489;BME280;21602;55.670;37.578;2024-03-25T10:28:14;98197.69;;;6.74;63.58
35489;BME280;21602;55.670;37.578;2024-03-25T10:30:42;98198.34;;;6.81;63.82
35489;BME280;21602;55.670;37.578;2024-03-25T10:33:08;98198.81;;;6.78;63.91
35489;BME280;21602;55.670;37.578;2024-03-25T10:35:36;98203.06;;;6.79;63.61
35489;BME280;21602;55.670;37.578;2024-03-25T10:38:03;98195.94;;;6.79;63.47
35489;BME280;21602;55.670;37.578;2024-03-25T10:40:32;98190.81;;;6.89;63.66
35489;BME280;21602;55.670;37.578;2024-03-25T10:43:08;98188.88;;;6.85;63.44
35489;BME280;21602;55.670;37.578;2024-03-25T10:45:49;98194.38;;;6.95;63.67
35489;BME280;21602;55.670;37.578;2024-03-25T10:48:37;98197.56;;;6.97;63.45
35489;BME280;21602;55.670;37.578;2024-03-25T10:51:06;98196.69;;;6.91;63.64
35489;BME280;21602;55.670;37.578;2024-03-25T10:53:35;98198.78;;;6.89;63.82
35489;BME280;21602;55.670;37.578;2024-03-25T10:56:05;98202.00;;;6.91;63.73
35489;BME280;21602;55.670;37.578;2024-03-25T10:58:31;98210.66;;;6.87;63.77
35489;BME280;21602;55.670;37.578;2024-03-25T11:00:58;98207.72;;;6.72;64.15
35489;BME280;21602;55.670;37.578;2024-03-25T11:03:26;98203.31;;;6.77;66.41
35489;BME280;21602;55.670;37.578;2024-03-25T11:05:52;98208.44;;;6.96;64.09
35489;BME280;21602;55.670;37.578;2024-03-25T11:08:18;98213.75;;;6.96;62.83
35489;BME280;21602;55.670;37.578;2024-03-25T11:10:44;98211.63;;;6.81;63.44
35489;BME280;21602;55.670;37.578;2024-03-25T11:13:19;98214.50;;;6.39;63.93
35489;BME280;21602;55.670;37.578;2024-03-25T11:15:47;98219.56;;;6.40;64.47
35489;BME280;21602;55.670;37.578;2024-03-25T11:18:21;98215.06;;;6.53;64.09
35489;BME280;21602;55.670;37.578;2024-03-25T11:21:05;98213.78;;;6.55;64.03
35489;BME280;21602;55.670;37.578;2024-03-25T11:23:41;98214.34;;;6.57;64.34
35489;BME280;21602;55.670;37.578;2024-03-25T11:26:19;98225.81;;;6.46;63.64
35489;BME280;21602;55.670;37.578;2024-03-25T11:28:45;98222.81;;;6.43;64.22
35489;BME280;21602;55.670;37.578;2024-03-25T11:31:11;98215.19;;;6.46;64.26
35489;BME280;21602;55.670;37.578;2024-03-25T11:33:41;98214.44;;;6.62;64.53
35489;BME280;21602;55.670;37.578;2024-03-25T11:36:07;98225.94;;;6.80;64.08
35489;BME280;21602;55.670;37.578;2024-03-25T11:38:33;98222.13;;;6.76;63.54
35489;BME280;21602;55.670;37.578;2024-03-25T11:41:00;98220.00;;;6.49;63.56
35489;BME280;21602;55.670;37.578;2024-03-25T11:43:26;98235.41;;;6.24;63.89
35489;BME280;21602;55.670;37.578;2024-03-25T11:45:52;98223.88;;;6.18;64.83
35489;BME280;21602;55.670;37.578;2024-03-25T11:48:19;98230.44;;;6.27;64.47
35489;BME280;21602;55.670;37.578;2024-03-25T11:50:51;98227.19;;;6.37;64.18
35489;BME280;21602;55.670;37.578;2024-03-25T11:53:19;98237.81;;;6.37;64.20
35489;BME280;21602;55.670;37.578;2024-03-25T11:55:48;98234.56;;;6.35;64.31
35489;BME280;21602;55.670;37.578;2024-03-25T11:58:15;98233.41;;;6.43;64.56
35489;BME280;21602;55.670;37.578;2024-03-25T12:00:47;98229.81;;;6.60;65.58
35489;BME280;21602;55.670;37.578;2024-03-25T12:03:22;98227.81;;;6.67;64.14
35489;BME280;21602;55.670;37.578;2024-03-25T12:05:55;98231.13;;;6.75;63.92
35489;BME280;21602;55.670;37.578;2024-03-25T12:08:21;98232.69;;;6.87;63.67
35489;BME280;21602;55.670;37.578;2024-03-25T12:10:51;98241.19;;;7.01;63.19
35489;BME280;21602;55.670;37.578;2024-03-25T12:13:38;98238.22;;;7.14;63.48
35489;BME280;21602;55.670;37.578;2024-03-25T12:16:11;98241.03;;;7.36;62.69
35489;BME280;21602;55.670;37.578;2024-03-25T12:18:40;98237.22;;;7.49;62.00
35489;BME280;21602;55.670;37.578;2024-03-25T12:21:07;98234.66;;;7.54;61.72
35489;BME280;21602;55.670;37.578;2024-03-25T12:23:33;98237.47;;;7.48;61.69
35489;BME280;21602;55.670;37.578;2024-03-25T12:26:00;98242.25;;;7.46;61.56
35489;BME280;21602;55.670;37.578;2024-03-25T12:28:30;98242.38;;;7.39;61.55
35489;BME280;21602;55.670;37.578;2024-03-25T12:30:56;98247.03;;;7.32;61.12
35489;BME280;21602;55.670;37.578;2024-03-25T12:33:23;98245.41;;;7.31;61.44
35489;BME280;21602;55.670;37.578;2024-03-25T12:35:50;98243.81;;;7.30;61.81
35489;BME280;21602;55.670;37.578;2024-03-25T12:40:48;98242.75;;;7.31;62.05
35489;BME280;21602;55.670;37.578;2024-03-25T12:43:16;98240.22;;;7.36;61.39
35489;BME280;21602;55.670;37.578;2024-03-25T12:45:44;98243.44;;;7.38;61.26
35489;BME280;21602;55.670;37.578;2024-03-25T12:48:12;98245.38;;;7.42;61.18
35489;BME280;21602;55.670;37.578;2024-03-25T12:50:38;98237.94;;;7.44;61.52
35489;BME280;21602;55.670;37.578;2024-03-25T12:53:05;98242.47;;;7.44;60.78
35489;BME280;21602;55.670;37.578;2024-03-25T12:55:33;98240.94;;;7.48;60.96
35489;BME280;21602;55.670;37.578;2024-03-25T12:57:59;98248.75;;;7.55;60.80
35489;BME280;21602;55.670;37.578;2024-03-25T13:00:25;98244.88;;;7.62;60.63
35489;BME280;21602;55.670;37.578;2024-03-25T13:02:51;98242.91;;;7.69;61.02
35489;BME280;21602;55.670;37.578;2024-03-25T13:05:16;98240.53;;;7.90;61.40
35489;BME280;21602;55.670;37.578;2024-03-25T13:07:42;98234.72;;;8.10;60.99